createdAt,value
2018-02-23T00:00:24.535Z,20.14
2018-02-23T00:01:24.838Z,19.75
2018-02-23T00:02:25.144Z,20.04
2018-02-23T00:03:25.447Z,20.04
2018-02-23T00:04:25.752Z,20.14
2018-02-23T00:05:26.218Z,19.85
2018-02-23T00:06:26.521Z,20.33
2018-02-23T00:07:26.826Z,20.04
2018-02-23T00:08:27.126Z,20.04
2018-02-23T00:09:27.428Z,19.37
2018-02-23T00:10:27.735Z,20.04
2018-02-23T00:11:28.040Z,19.37
2018-02-23T00:12:28.343Z,19.85
2018-02-23T00:13:28.648Z,20.33
2018-02-23T00:14:28.952Z,19.95
2018-02-23T00:15:29.259Z,19.95
2018-02-23T00:16:29.556Z,19.65
2018-02-23T00:17:29.862Z,19.95
2018-02-23T00:18:30.164Z,20.04
2018-02-23T00:19:30.471Z,19.46
2018-02-23T00:20:30.767Z,19.75
2018-02-23T00:21:31.073Z,20.43
2018-02-23T00:22:31.374Z,19.95
2018-02-23T00:23:31.686Z,20.23
2018-02-23T00:24:31.979Z,19.95
2018-02-23T00:25:32.284Z,19.95
2018-02-23T00:26:32.582Z,20.04
2018-02-23T00:27:32.907Z,19.65
2018-02-23T00:28:33.195Z,19.85
2018-02-23T00:29:33.499Z,19.46
2018-02-23T00:30:33.803Z,19.95
2018-02-23T00:31:34.106Z,19.75
2018-02-23T00:32:34.410Z,19.85
2018-02-23T00:33:34.715Z,19.75
2018-02-23T00:34:35.020Z,19.65
2018-02-23T00:35:35.324Z,19.75
2018-02-23T00:36:35.629Z,19.75
2018-02-23T00:37:35.929Z,19.75
2018-02-23T00:38:36.232Z,19.75
2018-02-23T00:39:36.534Z,19.85
2018-02-23T00:40:36.839Z,19.56
2018-02-23T00:41:37.144Z,20.04
2018-02-23T00:42:37.454Z,19.85
2018-02-23T00:43:37.753Z,19.75
2018-02-23T00:44:38.057Z,19.46
2018-02-23T00:45:38.362Z,19.56
2018-02-23T00:46:38.669Z,19.46
2018-02-23T00:47:38.967Z,20.14
2018-02-23T00:48:39.264Z,20.14
2018-02-23T00:49:39.571Z,20.04
2018-02-23T00:50:39.879Z,19.65
2018-02-23T00:51:40.172Z,19.65
2018-02-23T00:52:40.486Z,19.65
2018-02-23T00:53:40.783Z,19.85
2018-02-23T00:54:41.087Z,19.56
2018-02-23T00:55:41.393Z,19.56
2018-02-23T00:56:41.696Z,19.95
2018-02-23T00:57:42.000Z,19.85
2018-02-23T00:58:42.306Z,19.95
2018-02-23T00:59:42.607Z,19.46
2018-02-23T01:00:42.912Z,19.85
2018-02-23T01:01:43.215Z,19.75
2018-02-23T01:02:43.518Z,19.75
2018-02-23T01:03:43.824Z,19.56
2018-02-23T01:04:44.127Z,19.85
2018-02-23T01:05:44.432Z,19.46
2018-02-23T01:06:44.728Z,20.04
2018-02-23T01:07:45.033Z,19.75
2018-02-23T01:08:45.910Z,19.56
2018-02-23T01:09:45.639Z,19.75
2018-02-23T01:10:45.942Z,19.85
2018-02-23T01:11:46.246Z,19.75
2018-02-23T01:12:46.545Z,19.65
2018-02-23T01:13:46.850Z,19.65
2018-02-23T01:14:47.147Z,19.65
2018-02-23T01:15:47.451Z,19.56
2018-02-23T01:16:47.754Z,19.56
2018-02-23T01:17:48.067Z,19.75
2018-02-23T01:18:48.360Z,19.75
2018-02-23T01:19:48.666Z,19.85
2018-02-23T01:20:48.975Z,19.75
2018-02-23T01:21:49.274Z,19.85
2018-02-23T01:22:49.579Z,19.85
2018-02-23T01:23:49.884Z,19.85
2018-02-23T01:24:50.178Z,19.75
2018-02-23T01:25:50.478Z,19.75
2018-02-23T01:26:50.783Z,19.75
2018-02-23T01:27:51.101Z,19.65
2018-02-23T01:28:51.389Z,19.75
2018-02-23T01:29:51.693Z,19.85
2018-02-23T01:30:51.998Z,19.56
2018-02-23T01:31:52.301Z,19.65
2018-02-23T01:32:52.606Z,19.65
2018-02-23T01:33:52.911Z,19.95
2018-02-23T01:34:53.215Z,19.65
2018-02-23T01:35:53.516Z,19.85
2018-02-23T01:36:53.811Z,19.95
2018-02-23T01:37:54.110Z,19.65
2018-02-23T01:38:54.415Z,19.65
2018-02-23T01:39:54.719Z,19.65
2018-02-23T01:40:55.024Z,19.75
2018-02-23T01:41:55.330Z,19.56
2018-02-23T01:42:55.630Z,19.75
2018-02-23T01:43:55.937Z,19.85
2018-02-23T01:44:56.239Z,19.75
2018-02-23T01:45:56.542Z,19.65
2018-02-23T01:48:28.698Z,19.85
2018-02-23T01:49:29.002Z,19.65
2018-02-23T01:50:29.304Z,19.65
2018-02-23T01:51:29.601Z,19.65
2018-02-23T01:52:29.910Z,19.75
2018-02-23T01:53:30.215Z,19.75
2018-02-23T01:54:30.499Z,19.65
2018-02-23T01:55:30.815Z,19.75
2018-02-23T01:56:31.120Z,19.85
2018-02-23T01:57:31.425Z,19.75
2018-02-23T01:58:31.728Z,19.65
2018-02-23T01:59:32.032Z,19.75
2018-02-23T02:00:32.335Z,19.95
2018-02-23T02:01:32.639Z,19.65
2018-02-23T02:02:32.948Z,19.65
2018-02-23T02:03:33.249Z,19.65
2018-02-23T02:04:33.552Z,19.75
2018-02-23T02:05:33.855Z,19.65
2018-02-23T02:06:34.158Z,19.56
2018-02-23T02:07:34.458Z,19.85
2018-02-23T02:08:34.762Z,19.65
2018-02-23T02:09:35.073Z,19.65
2018-02-23T02:10:35.378Z,19.27
2018-02-23T02:11:35.682Z,19.85
2018-02-23T02:12:35.990Z,19.65
2018-02-23T02:13:36.286Z,19.95
2018-02-23T02:14:36.591Z,19.85
2018-02-23T02:15:36.895Z,19.85
2018-02-23T02:16:37.205Z,19.65
2018-02-23T02:17:37.500Z,19.75
2018-02-23T02:18:37.806Z,19.75
2018-02-23T02:19:38.113Z,19.65
2018-02-23T02:20:38.417Z,19.56
2018-02-23T02:21:38.721Z,19.75
2018-02-23T02:22:39.027Z,19.75
2018-02-23T02:23:39.330Z,19.95
2018-02-23T02:24:39.637Z,19.65
2018-02-23T02:25:39.941Z,19.75
2018-02-23T02:26:40.244Z,19.75
2018-02-23T02:27:40.549Z,19.75
2018-02-23T02:28:40.844Z,19.75
2018-02-23T02:29:41.144Z,19.56
2018-02-23T02:30:41.448Z,19.65
2018-02-23T02:31:41.752Z,19.65
2018-02-23T02:32:42.058Z,19.85
2018-02-23T02:33:42.361Z,19.65
2018-02-23T02:34:42.669Z,19.75
2018-02-23T02:35:42.969Z,19.65
2018-02-23T02:36:43.273Z,19.85
2018-02-23T02:37:43.578Z,19.65
2018-02-23T02:38:43.884Z,19.75
2018-02-23T02:39:44.179Z,19.65
2018-02-23T02:40:44.486Z,19.18
2018-02-23T02:41:44.787Z,19.85
2018-02-23T02:42:45.088Z,19.95
2018-02-23T02:43:45.395Z,19.85
2018-02-23T02:44:45.703Z,19.56
2018-02-23T02:45:45.995Z,19.75
2018-02-23T02:46:46.309Z,19.65
2018-02-23T02:47:46.619Z,19.85
2018-02-23T02:48:46.913Z,19.75
2018-02-23T02:49:47.208Z,19.56
2018-02-23T02:50:47.520Z,19.85
2018-02-23T02:51:47.824Z,19.65
2018-02-23T02:52:48.128Z,19.18
2018-02-23T02:53:48.434Z,19.65
2018-02-23T02:54:48.726Z,19.65
2018-02-23T02:55:49.050Z,19.85
2018-02-23T02:56:49.331Z,19.75
2018-02-23T02:57:49.628Z,19.85
2018-02-23T02:58:49.939Z,19.75
2018-02-23T02:59:50.243Z,19.85
2018-02-23T03:00:50.547Z,19.65
2018-02-23T03:01:50.849Z,19.65
2018-02-23T03:02:51.156Z,19.27
2018-02-23T03:03:51.461Z,19.85
2018-02-23T03:04:51.764Z,19.56
2018-02-23T03:05:52.067Z,19.75
2018-02-23T03:06:52.372Z,19.85
2018-02-23T03:07:52.676Z,19.75
2018-02-23T03:08:52.983Z,19.85
2018-02-23T03:09:53.287Z,19.95
2018-02-23T03:10:53.589Z,19.65
2018-02-23T03:11:53.895Z,19.18
2018-02-23T03:12:54.199Z,19.95
2018-02-23T03:13:54.504Z,19.65
2018-02-23T03:14:54.805Z,19.65
2018-02-23T03:15:55.122Z,19.85
2018-02-23T03:16:55.415Z,19.46
2018-02-23T03:17:55.722Z,19.27
2018-02-23T03:18:56.027Z,19.37
2018-02-23T03:19:56.331Z,19.37
2018-02-23T03:20:56.632Z,19.56
2018-02-23T03:21:56.940Z,19.56
2018-02-23T03:22:57.240Z,19.56
2018-02-23T03:23:57.541Z,19.95
2018-02-23T03:24:57.846Z,19.75
2018-02-23T03:25:58.150Z,19.56
2018-02-23T03:26:58.459Z,19.18
2018-02-23T03:27:58.748Z,19.65
2018-02-23T03:28:59.054Z,19.65
2018-02-23T03:29:59.350Z,19.37
2018-02-23T03:30:59.652Z,19.18
2018-02-23T03:31:59.962Z,19.65
2018-02-23T03:33:00.251Z,19.65
2018-02-23T03:34:00.562Z,19.18
2018-02-23T03:35:00.867Z,19.75
2018-02-23T03:36:01.172Z,19.27
2018-02-23T03:37:01.477Z,19.46
2018-02-23T03:38:01.781Z,19.75
2018-02-23T03:39:02.089Z,19.65
2018-02-23T03:40:02.387Z,19.85
2018-02-23T03:41:02.691Z,19.75
2018-02-23T03:42:02.995Z,19.85
2018-02-23T03:43:03.297Z,19.46
2018-02-23T03:44:03.604Z,19.56
2018-02-23T03:45:03.908Z,19.95
2018-02-23T03:46:04.210Z,19.27
2018-02-23T03:47:04.519Z,19.56
2018-02-23T03:48:04.822Z,19.18
2018-02-23T03:49:05.118Z,19.18
2018-02-23T03:50:05.430Z,19.56
2018-02-23T03:51:05.731Z,19.75
2018-02-23T03:52:06.035Z,19.46
2018-02-23T03:53:06.334Z,19.56
2018-02-23T03:54:06.635Z,19.75
2018-02-23T03:55:06.946Z,19.65
2018-02-23T03:56:07.240Z,19.75
2018-02-23T03:57:07.546Z,19.18
2018-02-23T03:58:07.849Z,19.85
2018-02-23T03:59:08.154Z,19.37
2018-02-23T04:00:08.458Z,19.56
2018-02-23T04:01:08.761Z,19.65
2018-02-23T04:02:09.075Z,19.75
2018-02-23T04:03:09.367Z,19.46
2018-02-23T04:04:09.661Z,19.46
2018-02-23T04:05:09.978Z,19.37
2018-02-23T04:06:10.282Z,19.46
2018-02-23T04:07:10.586Z,19.56
2018-02-23T04:08:10.890Z,19.56
2018-02-23T04:09:11.198Z,19.46
2018-02-23T04:10:11.499Z,19.27
2018-02-23T04:11:11.803Z,19.27
2018-02-23T04:12:12.108Z,19.75
2018-02-23T04:13:12.412Z,19.85
2018-02-23T04:14:12.716Z,19.85
2018-02-23T04:15:13.019Z,19.37
2018-02-23T04:16:13.334Z,19.65
2018-02-23T04:17:13.649Z,19.27
2018-02-23T04:18:13.935Z,19.65
2018-02-23T04:19:14.227Z,19.18
2018-02-23T04:20:14.524Z,19.56
2018-02-23T04:21:14.825Z,19.75
2018-02-23T04:22:15.127Z,19.85
2018-02-23T04:23:15.433Z,19.46
2018-02-23T04:24:15.738Z,19.37
2018-02-23T04:25:16.042Z,19.95
2018-02-23T04:26:16.346Z,19.37
2018-02-23T04:27:16.651Z,19.37
2018-02-23T04:28:16.958Z,19.56
2018-02-23T04:29:17.263Z,19.56
2018-02-23T04:30:17.567Z,19.65
2018-02-23T04:31:17.874Z,19.46
2018-02-23T04:32:18.172Z,19.75
2018-02-23T04:33:18.485Z,19.56
2018-02-23T04:34:18.782Z,19.65
2018-02-23T04:35:19.092Z,19.85
2018-02-23T04:36:19.398Z,19.56
2018-02-23T04:37:19.702Z,19.37
2018-02-23T04:38:19.995Z,19.27
2018-02-23T04:39:20.311Z,19.56
2018-02-23T04:40:20.615Z,19.65
2018-02-23T04:41:20.914Z,19.75
2018-02-23T04:42:21.218Z,19.56
2018-02-23T04:43:21.530Z,19.56
2018-02-23T04:44:21.823Z,19.37
2018-02-23T04:45:22.122Z,19.27
2018-02-23T04:46:22.422Z,19.56
2018-02-23T04:47:22.718Z,19.56
2018-02-23T04:48:23.027Z,19.46
2018-02-23T04:49:25.519Z,19.65
2018-02-23T04:50:23.623Z,19.18
2018-02-23T04:51:23.903Z,19.75
2018-02-23T04:52:24.206Z,19.95
2018-02-23T04:53:24.510Z,19.56
2018-02-23T04:54:24.861Z,19.56
2018-02-23T04:55:25.139Z,19.85
2018-02-23T04:56:25.412Z,19.46
2018-02-23T04:57:25.714Z,19.18
2018-02-23T04:58:26.024Z,19.37
2018-02-23T04:59:26.332Z,19.37
2018-02-23T05:00:26.633Z,19.75
2018-02-23T05:01:26.937Z,19.27
2018-02-23T05:02:27.259Z,19.37
2018-02-23T05:03:27.550Z,19.27
2018-02-23T05:04:27.865Z,19.75
2018-02-23T05:05:28.156Z,19.37
2018-02-23T05:06:28.460Z,19.56
2018-02-23T05:07:28.765Z,19.85
2018-02-23T05:08:29.070Z,19.18
2018-02-23T05:09:29.375Z,19.46
2018-02-23T05:10:29.678Z,19.46
2018-02-23T05:11:29.984Z,19.46
2018-02-23T05:12:30.288Z,19.46
2018-02-23T05:13:30.592Z,19.46
2018-02-23T05:14:30.898Z,19.56
2018-02-23T05:15:31.202Z,19.37
2018-02-23T05:16:31.541Z,19.75
2018-02-23T05:17:31.797Z,19.37
2018-02-23T05:18:32.101Z,19.37
2018-02-23T05:19:32.406Z,19.75
2018-02-23T05:20:32.710Z,19.56
2018-02-23T05:21:33.015Z,19.56
2018-02-23T05:22:33.324Z,19.56
2018-02-23T05:23:33.628Z,19.27
2018-02-23T05:24:33.933Z,19.27
2018-02-23T05:25:34.237Z,19.46
2018-02-23T05:26:34.535Z,19.46
2018-02-23T05:27:34.828Z,19.75
2018-02-23T05:28:35.148Z,19.46
2018-02-23T05:29:35.455Z,19.56
2018-02-23T05:30:35.756Z,19.56
2018-02-23T05:31:36.062Z,19.46
2018-02-23T05:32:36.365Z,19.27
2018-02-23T05:33:36.669Z,19.75
2018-02-23T05:34:36.977Z,19.46
2018-02-23T05:35:37.274Z,19.56
2018-02-23T05:36:37.573Z,19.46
2018-02-23T05:37:37.880Z,19.65
2018-02-23T05:38:38.180Z,19.27
2018-02-23T05:39:38.487Z,19.75
2018-02-23T05:40:38.790Z,19.75
2018-02-23T05:41:39.097Z,19.65
2018-02-23T05:42:39.416Z,19.65
2018-02-23T05:43:39.705Z,19.37
2018-02-23T05:44:40.009Z,19.65
2018-02-23T05:45:40.314Z,19.37
2018-02-23T05:46:40.618Z,19.37
2018-02-23T05:47:40.927Z,19.56
2018-02-23T05:48:41.236Z,19.27
2018-02-23T05:49:41.529Z,19.27
2018-02-23T05:50:41.846Z,19.37
2018-02-23T05:51:42.135Z,19.18
2018-02-23T05:52:42.440Z,19.65
2018-02-23T05:53:42.744Z,19.46
2018-02-23T05:54:43.042Z,19.46
2018-02-23T05:55:43.352Z,19.37
2018-02-23T05:56:43.657Z,19.75
2018-02-23T05:57:43.962Z,19.46
2018-02-23T05:58:44.266Z,19.56
2018-02-23T05:59:44.568Z,19.46
2018-02-23T06:00:44.884Z,19.56
2018-02-23T06:01:45.176Z,19.46
2018-02-23T06:02:45.482Z,19.37
2018-02-23T06:03:45.788Z,19.37
2018-02-23T06:04:46.090Z,19.65
2018-02-23T06:05:46.397Z,19.37
2018-02-23T06:06:46.699Z,19.18
2018-02-23T06:07:46.991Z,19.46
2018-02-23T06:08:47.311Z,19.37
2018-02-23T06:09:47.616Z,19.56
2018-02-23T06:10:47.920Z,19.75
2018-02-23T06:11:48.225Z,19.56
2018-02-23T06:12:48.530Z,19.37
2018-02-23T06:13:48.829Z,19.46
2018-02-23T06:14:49.143Z,19.37
2018-02-23T06:15:49.432Z,19.46
2018-02-23T06:16:49.738Z,19.65
2018-02-23T06:17:50.043Z,19.65
2018-02-23T06:18:50.347Z,19.46
2018-02-23T06:19:50.652Z,19.65
2018-02-23T06:20:50.960Z,19.65
2018-02-23T06:21:51.251Z,19.08
2018-02-23T06:22:51.555Z,19.46
2018-02-23T06:23:51.852Z,19.46
2018-02-23T06:24:52.150Z,19.65
2018-02-23T06:25:52.450Z,19.56
2018-02-23T06:26:52.755Z,19.75
2018-02-23T06:27:53.060Z,19.27
2018-02-23T06:28:53.364Z,19.56
2018-02-23T06:29:53.670Z,19.65
2018-02-23T06:30:53.965Z,19.46
2018-02-23T06:31:54.263Z,19.37
2018-02-23T06:32:54.573Z,19.27
2018-02-23T06:33:54.872Z,19.27
2018-02-23T06:34:55.172Z,19.46
2018-02-23T06:35:55.482Z,19.46
2018-02-23T06:36:55.787Z,19.65
2018-02-23T06:37:56.092Z,19.18
2018-02-23T06:38:56.380Z,19.08
2018-02-23T06:39:56.705Z,19.46
2018-02-23T06:40:57.005Z,19.65
2018-02-23T06:41:57.315Z,19.46
2018-02-23T06:42:57.614Z,19.37
2018-02-23T06:43:57.920Z,19.27
2018-02-23T06:44:58.228Z,19.56
2018-02-23T06:45:58.538Z,19.56
2018-02-23T06:46:58.835Z,19.65
2018-02-23T06:47:59.140Z,19.18
2018-02-23T06:48:59.443Z,19.56
2018-02-23T06:49:59.764Z,19.46
2018-02-23T06:51:00.070Z,19.37
2018-02-23T06:52:00.374Z,19.75
2018-02-23T06:53:00.679Z,19.46
2018-02-23T06:54:00.984Z,19.56
2018-02-23T06:55:01.289Z,19.75
2018-02-23T06:56:01.598Z,19.46
2018-02-23T06:57:01.907Z,19.37
2018-02-23T06:58:02.202Z,19.46
2018-02-23T06:59:02.506Z,19.27
2018-02-23T07:00:02.809Z,19.27
2018-02-23T07:01:03.109Z,19.56
2018-02-23T07:02:03.406Z,19.46
2018-02-23T07:03:03.715Z,19.46
2018-02-23T07:04:04.002Z,19.75
2018-02-23T07:05:04.303Z,19.46
2018-02-23T07:06:04.608Z,19.46
2018-02-23T07:07:04.912Z,19.46
2018-02-23T07:08:05.254Z,19.56
2018-02-23T07:09:05.492Z,19.37
2018-02-23T07:10:05.810Z,19.65
2018-02-23T07:11:06.122Z,19.56
2018-02-23T07:12:06.406Z,19.65
2018-02-23T07:13:06.712Z,19.37
2018-02-23T07:14:07.014Z,19.56
2018-02-23T07:15:07.314Z,19.27
2018-02-23T07:16:07.628Z,19.37
2018-02-23T07:17:07.923Z,19.37
2018-02-23T07:18:08.230Z,19.65
2018-02-23T07:19:08.884Z,19.65
2018-02-23T07:20:08.832Z,19.37
2018-02-23T07:21:09.139Z,19.18
2018-02-23T07:22:09.441Z,19.37
2018-02-23T07:23:09.745Z,19.18
2018-02-23T07:24:10.051Z,19.27
2018-02-23T07:25:10.355Z,19.37
2018-02-23T07:26:10.659Z,19.08
2018-02-23T07:27:10.963Z,19.56
2018-02-23T07:28:11.253Z,19.27
2018-02-23T07:29:11.566Z,19.65
2018-02-23T07:30:11.874Z,19.56
2018-02-23T07:31:12.179Z,19.27
2018-02-23T07:32:12.915Z,19.08
2018-02-23T07:33:12.859Z,19.18
2018-02-23T07:34:13.092Z,19.18
2018-02-23T07:35:13.397Z,19.27
2018-02-23T07:36:14.015Z,19.37
2018-02-23T07:37:14.308Z,19.37
2018-02-23T07:38:14.306Z,19.56
2018-02-23T07:39:14.601Z,19.46
2018-02-23T07:40:14.906Z,19.46
2018-02-23T07:41:15.211Z,19.27
2018-02-23T07:42:15.513Z,19.37
2018-02-23T07:43:15.821Z,19.37
2018-02-23T07:44:16.126Z,19.27
2018-02-23T07:45:16.430Z,19.37
2018-02-23T07:46:16.748Z,19.37
2018-02-23T07:47:17.039Z,19.27
2018-02-23T07:48:17.341Z,19.56
2018-02-23T07:49:17.646Z,19.37
2018-02-23T07:50:17.953Z,19.18
2018-02-23T07:51:18.268Z,19.27
2018-02-23T07:52:18.558Z,19.37
2018-02-23T07:53:18.861Z,19.27
2018-02-23T07:54:19.166Z,19.37
2018-02-23T07:55:19.472Z,19.37
2018-02-23T07:56:19.774Z,19.37
2018-02-23T07:57:20.071Z,19.18
2018-02-23T07:58:20.376Z,18.79
2018-02-23T07:59:20.680Z,18.79
2018-02-23T08:00:20.986Z,19.18
2018-02-23T08:01:21.289Z,19.27
2018-02-23T08:02:21.582Z,19.37
2018-02-23T08:03:21.887Z,19.56
2018-02-23T08:04:22.191Z,19.46
2018-02-23T08:05:22.494Z,19.46
2018-02-23T08:06:22.799Z,19.27
2018-02-23T08:07:23.104Z,19.08
2018-02-23T08:08:23.410Z,19.08
2018-02-23T08:09:23.715Z,18.79
2018-02-23T08:10:24.020Z,19.18
2018-02-23T08:11:24.323Z,19.37
2018-02-23T08:12:24.627Z,18.79
2018-02-23T08:13:24.932Z,19.18
2018-02-23T08:14:25.238Z,18.98
2018-02-23T08:15:25.539Z,18.79
2018-02-23T08:16:25.844Z,18.88
2018-02-23T08:17:26.143Z,18.79
2018-02-23T08:18:26.443Z,19.27
2018-02-23T08:19:26.982Z,19.27
2018-02-23T08:20:27.058Z,19.46
2018-02-23T08:21:27.502Z,19.27
2018-02-23T08:22:27.675Z,19.18
2018-02-23T08:23:27.979Z,19.08
2018-02-23T08:24:28.284Z,19.18
2018-02-23T08:25:28.588Z,18.88
2018-02-23T08:26:28.898Z,18.79
2018-02-23T08:27:29.197Z,19.08
2018-02-23T08:28:29.503Z,19.18
2018-02-23T08:29:29.811Z,19.08
2018-02-23T08:30:30.112Z,18.79
2018-02-23T08:31:30.417Z,18.79
2018-02-23T08:32:30.721Z,19.18
2018-02-23T08:33:31.020Z,19.18
2018-02-23T08:34:31.315Z,19.08
2018-02-23T08:35:31.639Z,19.37
2018-02-23T08:36:31.943Z,18.88
2018-02-23T08:37:32.248Z,18.98
2018-02-23T08:38:32.556Z,18.79
2018-02-23T08:39:32.858Z,19.08
2018-02-23T08:40:33.160Z,19.37
2018-02-23T08:41:33.464Z,19.37
2018-02-23T08:42:33.770Z,19.08
2018-02-23T08:43:34.074Z,19.18
2018-02-23T08:44:34.384Z,19.08
2018-02-23T08:45:34.682Z,18.98
2018-02-23T08:46:34.985Z,19.18
2018-02-23T08:47:35.282Z,19.08
2018-02-23T08:48:35.595Z,18.79
2018-02-23T08:49:35.897Z,19.08
2018-02-23T08:50:36.205Z,19.27
2018-02-23T08:51:36.508Z,19.27
2018-02-23T08:52:36.813Z,19.27
2018-02-23T08:53:37.118Z,19.08
2018-02-23T08:54:37.424Z,19.37
2018-02-23T08:55:37.726Z,19.27
2018-02-23T08:56:38.031Z,18.79
2018-02-23T08:57:38.335Z,19.08
2018-02-23T08:58:38.639Z,19.27
2018-02-23T08:59:38.943Z,19.18
2018-02-23T09:00:39.249Z,18.79
2018-02-23T09:01:39.553Z,18.70
2018-02-23T09:02:39.843Z,19.08
2018-02-23T09:03:40.157Z,19.08
2018-02-23T09:04:40.461Z,19.08
2018-02-23T09:05:40.760Z,18.98
2018-02-23T09:06:41.065Z,18.79
2018-02-23T09:07:41.372Z,18.79
2018-02-23T09:08:41.674Z,19.08
2018-02-23T09:09:41.977Z,19.08
2018-02-23T09:10:42.285Z,19.18
2018-02-23T09:11:42.587Z,19.08
2018-02-23T09:12:42.892Z,19.08
2018-02-23T09:13:43.195Z,19.18
2018-02-23T09:14:43.501Z,19.08
2018-02-23T09:15:43.802Z,18.88
2018-02-23T09:16:44.106Z,19.08
2018-02-23T09:17:44.410Z,19.18
2018-02-23T09:18:44.719Z,19.18
2018-02-23T09:19:45.019Z,18.88
2018-02-23T09:20:45.322Z,18.98
2018-02-23T09:21:45.627Z,18.98
2018-02-23T09:22:45.934Z,19.18
2018-02-23T09:23:46.236Z,19.08
2018-02-23T09:24:46.542Z,19.08
2018-02-23T09:25:46.842Z,19.08
2018-02-23T09:26:47.141Z,19.08
2018-02-23T09:27:47.446Z,19.18
2018-02-23T09:28:47.752Z,18.88
2018-02-23T09:29:48.055Z,18.79
2018-02-23T09:30:48.360Z,18.79
2018-02-23T09:31:48.667Z,19.08
2018-02-23T09:32:48.968Z,19.18
2018-02-23T09:33:50.085Z,19.27
2018-02-23T09:34:49.570Z,19.27
2018-02-23T09:35:49.875Z,18.88
2018-02-23T09:36:50.179Z,18.98
2018-02-23T09:37:50.484Z,18.79
2018-02-23T09:38:50.788Z,18.88
2018-02-23T09:39:51.111Z,19.08
2018-02-23T09:40:51.400Z,19.08
2018-02-23T09:41:51.706Z,18.98
2018-02-23T09:42:52.010Z,19.08
2018-02-23T09:43:52.315Z,19.18
2018-02-23T09:44:52.619Z,19.27
2018-02-23T09:45:52.926Z,18.98
2018-02-23T09:46:53.222Z,18.98
2018-02-23T09:47:53.533Z,18.98
2018-02-23T09:48:53.830Z,18.88
2018-02-23T09:49:54.142Z,19.18
2018-02-23T09:50:54.445Z,19.08
2018-02-23T09:51:54.750Z,18.79
2018-02-23T09:52:55.047Z,19.08
2018-02-23T09:53:55.351Z,19.08
2018-02-23T09:54:55.657Z,18.88
2018-02-23T09:55:55.955Z,18.98
2018-02-23T09:56:56.255Z,18.88
2018-02-23T09:57:56.561Z,19.08
2018-02-23T09:58:56.865Z,19.08
2018-02-23T09:59:57.169Z,19.08
2018-02-23T10:00:57.498Z,19.18
2018-02-23T10:01:57.774Z,19.18
2018-02-23T10:02:58.081Z,19.08
2018-02-23T10:03:58.387Z,18.88
2018-02-23T10:04:58.694Z,19.18
2018-02-23T10:05:58.993Z,18.98
2018-02-23T10:06:59.296Z,19.18
2018-02-23T10:07:59.601Z,19.27
2018-02-23T10:08:59.901Z,19.18
2018-02-23T10:10:00.211Z,18.88
2018-02-23T10:11:00.516Z,18.88
2018-02-23T10:12:00.820Z,18.70
2018-02-23T10:13:01.124Z,18.70
2018-02-23T10:14:01.434Z,18.79
2018-02-23T10:15:01.734Z,18.88
2018-02-23T10:16:02.042Z,19.27
2018-02-23T10:17:02.571Z,19.18
2018-02-23T10:18:02.657Z,19.08
2018-02-23T10:19:02.945Z,19.08
2018-02-23T10:20:03.254Z,18.79
2018-02-23T10:21:03.570Z,18.50
2018-02-23T10:22:03.871Z,18.50
2018-02-23T10:23:04.173Z,19.08
2018-02-23T10:24:04.476Z,19.08
2018-02-23T10:25:04.776Z,19.27
2018-02-23T10:26:05.074Z,19.18
2018-02-23T10:27:05.378Z,18.79
2018-02-23T10:28:05.686Z,18.60
2018-02-23T10:29:05.988Z,18.88
2018-02-23T10:30:06.293Z,18.50
2018-02-23T10:31:06.597Z,18.79
2018-02-23T10:32:06.896Z,18.98
2018-02-23T10:33:07.201Z,18.98
2018-02-23T10:34:07.506Z,18.98
2018-02-23T10:35:07.812Z,19.27
2018-02-23T10:36:08.121Z,19.37
2018-02-23T10:37:08.417Z,19.18
2018-02-23T10:38:08.720Z,18.79
2018-02-23T10:39:09.026Z,18.50
2018-02-23T10:40:09.330Z,18.60
2018-02-23T10:41:09.634Z,18.50
2018-02-23T10:42:09.938Z,18.50
2018-02-23T10:43:10.219Z,18.50
2018-02-23T10:44:10.537Z,18.79
2018-02-23T10:45:10.840Z,18.98
2018-02-23T10:46:11.146Z,18.98
2018-02-23T10:47:11.486Z,18.60
2018-02-23T10:48:11.755Z,18.60
2018-02-23T10:49:12.067Z,18.79
2018-02-23T10:50:12.354Z,18.70
2018-02-23T10:51:12.659Z,18.70
2018-02-23T10:52:12.964Z,18.50
2018-02-23T10:53:13.268Z,18.50
2018-02-23T10:54:13.573Z,18.50
2018-02-23T10:55:13.878Z,18.98
2018-02-23T10:56:14.181Z,18.60
2018-02-23T10:57:14.494Z,18.88
2018-02-23T10:58:14.783Z,18.70
2018-02-23T10:59:15.087Z,18.50
2018-02-23T11:00:15.395Z,18.60
2018-02-23T11:01:15.697Z,18.50
2018-02-23T11:02:16.000Z,18.50
2018-02-23T11:03:16.304Z,18.50
2018-02-23T11:04:16.609Z,18.98
2018-02-23T11:05:16.914Z,18.88
2018-02-23T11:06:17.216Z,19.08
2018-02-23T11:07:17.525Z,18.70
2018-02-23T11:08:17.827Z,18.60
2018-02-23T11:09:18.132Z,18.60
2018-02-23T11:10:18.440Z,18.60
2018-02-23T11:11:18.736Z,18.60
2018-02-23T11:12:19.044Z,18.50
2018-02-23T11:13:19.346Z,18.60
2018-02-23T11:14:19.651Z,18.70
2018-02-23T11:15:19.955Z,18.70
2018-02-23T11:16:20.259Z,18.79
2018-02-23T11:17:20.565Z,18.60
2018-02-23T11:18:20.869Z,18.70
2018-02-23T11:19:21.174Z,18.60
2018-02-23T11:20:21.474Z,18.60
2018-02-23T11:21:21.777Z,18.98
2018-02-23T11:22:22.081Z,18.88
2018-02-23T11:23:22.388Z,18.98
2018-02-23T11:24:22.692Z,18.50
2018-02-23T11:25:22.997Z,18.50
2018-02-23T11:26:23.301Z,18.70
2018-02-23T11:27:23.605Z,18.70
2018-02-23T11:28:23.911Z,18.60
2018-02-23T11:29:24.215Z,18.50
2018-02-23T11:30:24.528Z,18.50
2018-02-23T11:31:24.825Z,19.08
2018-02-23T11:32:25.133Z,18.50
2018-02-23T11:33:25.431Z,18.60
2018-02-23T11:34:25.735Z,18.50
2018-02-23T11:35:26.040Z,18.50
2018-02-23T11:36:26.345Z,18.60
2018-02-23T11:37:26.648Z,18.50
2018-02-23T11:38:27.641Z,19.08
2018-02-23T11:39:27.253Z,19.08
2018-02-23T11:40:27.558Z,18.88
2018-02-23T11:41:27.864Z,18.88
2018-02-23T11:42:28.168Z,18.70
2018-02-23T11:43:28.473Z,18.50
2018-02-23T11:44:28.781Z,18.60
2018-02-23T11:45:29.082Z,18.98
2018-02-23T11:46:29.387Z,18.70
2018-02-23T11:47:29.692Z,19.08
2018-02-23T11:48:29.994Z,19.18
2018-02-23T11:49:30.298Z,19.08
2018-02-23T11:50:30.601Z,19.18
2018-02-23T11:51:30.905Z,18.70
2018-02-23T11:52:31.214Z,19.08
2018-02-23T11:53:31.511Z,18.70
2018-02-23T11:54:31.816Z,18.88
2018-02-23T11:55:32.120Z,18.98
2018-02-23T11:56:32.425Z,18.98
2018-02-23T11:57:32.730Z,18.98
2018-02-23T11:58:33.034Z,18.79
2018-02-23T11:59:33.347Z,18.98
2018-02-23T12:00:34.119Z,18.60
2018-02-23T12:01:33.934Z,18.88
2018-02-23T12:02:34.241Z,18.98
2018-02-23T12:03:34.544Z,19.08
2018-02-23T12:04:34.849Z,18.79
2018-02-23T12:05:35.154Z,19.18
2018-02-23T12:06:35.460Z,19.18
2018-02-23T12:07:35.764Z,19.27
2018-02-23T12:08:36.070Z,19.08
2018-02-23T12:09:36.376Z,18.88
2018-02-23T12:10:36.680Z,18.50
2018-02-23T12:11:36.985Z,18.60
2018-02-23T12:12:37.291Z,18.60
2018-02-23T12:13:37.598Z,19.18
2018-02-23T12:14:37.901Z,18.50
2018-02-23T12:15:38.208Z,18.60
2018-02-23T12:16:38.513Z,18.79
2018-02-23T12:17:38.818Z,19.08
2018-02-23T12:18:39.127Z,19.08
2018-02-23T12:19:39.430Z,18.79
2018-02-23T12:20:39.735Z,19.18
2018-02-23T12:21:40.043Z,18.88
2018-02-23T12:22:40.346Z,18.70
2018-02-23T12:23:40.652Z,18.50
2018-02-23T12:24:40.953Z,18.79
2018-02-23T12:25:41.262Z,19.27
2018-02-23T12:26:41.563Z,18.88
2018-02-23T12:27:41.866Z,19.27
2018-02-23T12:31:14.116Z,18.98
2018-02-23T12:32:14.423Z,19.08
2018-02-23T12:33:14.729Z,19.08
2018-02-23T12:34:15.039Z,19.27
2018-02-23T12:35:15.324Z,19.08
2018-02-23T12:36:15.633Z,18.88
2018-02-23T12:37:15.939Z,19.18
2018-02-23T12:38:16.241Z,19.27
2018-02-23T12:39:16.543Z,18.88
2018-02-23T12:40:16.838Z,19.08
2018-02-23T12:41:17.142Z,19.08
2018-02-23T12:42:17.446Z,19.37
2018-02-23T12:43:17.754Z,19.08
2018-02-23T12:44:18.055Z,19.18
2018-02-23T12:45:18.359Z,19.08
2018-02-23T12:46:18.663Z,19.37
2018-02-23T12:47:18.971Z,19.27
2018-02-23T12:48:19.265Z,18.98
2018-02-23T12:49:19.569Z,19.18
2018-02-23T12:50:19.875Z,19.37
2018-02-23T12:51:20.182Z,19.08
2018-02-23T12:52:20.485Z,19.08
2018-02-23T12:53:20.791Z,18.98
2018-02-23T12:54:21.095Z,18.88
2018-02-23T12:55:21.404Z,19.27
2018-02-23T12:56:21.704Z,19.27
2018-02-23T12:57:21.999Z,19.27
2018-02-23T12:58:22.315Z,18.79
2018-02-23T12:59:22.616Z,19.37
2018-02-23T13:00:22.920Z,19.08